Amunt
Inicio > meteoXarxa
Fes-te'n soci

METEOXARXA

la Torre d'en Doménec
Ubicació
Comarca la Plana Alta
Altitud (msnm) 303
Posició geogràfica 40° 15' 42.12" N, 00° 4' 9.12" E
Model Oregon WMR928
Presa de dades
Font de les dades Joan Carrió i Serra
Estadístiques. Resum
Data Temperatura (ºC) Humitat (%) Pressió (hPa) Vent (km/h) Precipit. (mm)
Mínima Mitjana Màxima Mínima Mitjana Màxima Mínima Mitjana Màxima Predom. Mitjana Ràfega màxima Total Dies de pluja
Mínima Mitjana Màxima Mínima Mitjana Màxima
Últimes dades diàries
24-02-2017 8,9     12,5     16,1 40,0 68,0 96,0 1.009,0 1.012,0 1.015,0 35,0 2,4  
23-02-2017 7,6     12,9     18,3 44,0 59,5 75,0 1.011,0 1.014,5 1.018,0 20,0 0,0  
22-02-2017 4,3     11,7     19,0 33,0 53,5 74,0 1.018,0 1.020,0 1.022,0 18,0 0,0  
21-02-2017 3,0     11,2     19,3 35,0 56,0 77,0 1.020,0 1.022,0 1.024,0 18,0 0,0  
20-02-2017 2,7     9,8     16,8 37,0 66,5 96,0 1.022,0 1.023,5 1.025,0 26,0 0,0  
19-02-2017 5,7     10,6     15,4 53,0 75,0 97,0 1.019,0 1.021,5 1.024,0 18,0 0,0  
18-02-2017 2,8     9,6     16,4 51,0 74,5 98,0 1.017,0 1.020,0 1.023,0 13,0 0,3  
17-02-2017 3,2     9,8     16,4 56,0 77,0 98,0 1.023,0 1.026,0 1.029,0 12,0 0,3  
16-02-2017 7,4     11,2     14,9 74,0 86,0 98,0 1.028,0 1.029,5 1.031,0 10,0 0,0  
15-02-2017 4,3     10,1     15,8 64,0 81,0 98,0 1.026,0 1.028,5 1.031,0 10,0 0,3  
14-02-2017 4,8     10,8     16,8 49,0 73,5 98,0 1.013,0 1.019,5 1.026,0 13,0 0,3  
13-02-2017 8,4     11,4     14,4 82,0 90,0 98,0 1.005,0 1.009,0 1.013,0 29,0 11,4  
12-02-2017 10,2     12,1     13,9 71,0 81,5 92,0 1.006,0 1.007,0 1.008,0 18,0 0,0  
11-02-2017 5,0     8,2     11,5 74,0 83,5 93,0 1.008,0 1.011,0 1.014,0 25,0 0,6  
10-02-2017 2,1     7,1     12,1 55,0 67,5 80,0 1.012,0 1.013,0 1.014,0 15,0 0,0  
09-02-2017 3,8     10,2     16,5 5,0 31,0 57,0 1.014,0 1.016,5 1.019,0 56,0 0,0  
08-02-2017 7,7     9,7     11,6 35,0 43,5 52,0 1.013,0 1.015,5 1.018,0 94,0  
07-02-2017 11,1     15,6     20,1 37,0 45,0 53,0 1.015,0 1.016,0 1.017,0 56,0 0,0  
06-02-2017 9,8     13,7     17,5 30,0 35,0 40,0 1.015,0 1.016,5 1.018,0 85,0 0,0  
05-02-2017 9,3     12,7     16,1 27,0 50,0 73,0 1.005,0 1.011,0 1.017,0 71,0 1,5  
04-02-2017 9,8     13,7     17,5 49,0 60,0 71,0 1.008,0 1.010,0 1.012,0 27,0 0,0  
03-02-2017 5,4     12,4     19,5 37,0 67,5 98,0 1.011,0 1.013,0 1.015,0 39,0 0,3  
02-02-2017 5,4     8,8     12,2 74,0 86,0 98,0 1.010,0 1.012,0 1.014,0 22,0 1,2  
01-02-2017 4,6     10,7     16,8 69,0 83,5 98,0 1.014,0 1.015,0 1.016,0 10,0 0,3  
31-01-2017 4,9     10,8     16,7 64,0 81,0 98,0 1.014,0 1.015,5 1.017,0 10,0 0,0  
30-01-2017 6,3     12,1     17,8 47,0 70,0 93,0 1.017,0 1.019,0 1.021,0 16,0 0,0  
29-01-2017 3,3     8,6     13,9 40,0 57,5 75,0 1.020,0 1.021,5 1.023,0 25,0 0,0  
28-01-2017 7,7     11,3     15,0 38,0 62,0 86,0 1.007,0 1.014,0 1.021,0 66,0 1,8  
27-01-2017 5,5     9,9     14,3 64,0 81,0 98,0 1.006,0 1.010,0 1.014,0 19,0 10,5  
26-01-2017 0,6     6,0     11,3 56,0 73,0 90,0 1.014,0 1.015,5 1.017,0 13,0 0,0  
25-01-2017 1,4     7,2     13,0 32,0 49,5 67,0 1.015,0 1.016,5 1.018,0 18,0 0,0  
24-01-2017 4,1     9,6     15,1 35,0 42,0 49,0 1.015,0 1.016,5 1.018,0 34,0 0,0  
Dades del mes en curs (actualitzades fins l'últim dia disponible)
02/2017 2,1 6,1 11,1 11,1 11,5 16,0 20,1 5,0 66,4 98,0 1.005,0 1.016,8 1.031,0   94,0 18,9  
Últimes dades mensuals
01/2017 -2,2 3,6 8,8 8,5 6,8 13,4 20,1 24,5 62,2 98,0 1.010,0 1.017,8 1.026,5 93,0 165,3 11
12/2016 0,8 5,8 12,2 10,6 9,5 15,5 18,4 49,0 75,8 97,0 1.013,0 1.024,8 1.033,5 50,0 134,4 12
11/2016 1,8 7,7 13,0 12,7 11,9 17,6 25,1 38,5 68,2 95,5 1.001,0 1.013,9 1.028,0 72,0 82,5 11
10/2016 8,5 12,8 16,5 17,7 16,3 22,5 27,2 60,0 77,5 88,5 1.001,0 1.016,2 1.028,5 37,0 40,8 11
09/2016 10,9 16,0 23,0 21,5 22,8 27,1 34,9 36,5 65,2 84,0 1.012,5 1.019,1 1.028,0 46,0 12,9 7
08/2016 12,9 17,5 20,9 23,2 24,2 28,8 32,2 38,5 66,8 80,5 1.012,0 1.019,4 1.025,0 40,0 34,8 2
07/2016 13,5 17,6 19,8 23,5 25,2 29,5 32,9 47,5 59,3 75,0 1.013,5 1.018,1 1.023,0 46,0 0,6 1
06/2016 10,5 14,8 19,3 20,8 23,0 26,8 30,3 37,0 57,8 71,0 1.002,5 1.016,1 1.023,0 51,0 3,0 3
05/2016 4,5 11,3 15,5 16,4 15,2 21,5 27,0 34,5 65,7 93,5 1.005,5 1.014,7 1.021,0 59,0 38,4 8
04/2016 3,6 8,6 12,8 14,0 13,0 19,4 26,1 36,0 63,5 95,5 1.006,5 1.013,5 1.019,5 72,0 54,9 10
03/2016 1,7 6,4 9,3 11,7 8,5 16,9 23,3 25,5 56,1 96,5 1.004,0 1.014,1 1.020,5 94,0 38,1 9
02/2016 -1,3 5,5 13,4 11,5 9,9 17,6 23,9 31,0 53,1 72,5 992,5 1.016,4 1.033,5 90,0 21,4 4
01/2016 1,6 5,8 11,1 11,2 10,7 16,7 21,8 34,0 61,9 85,0 1.004,0 1.020,1 1.033,5 77,0 3,6 5
Dades de l'any en curs (actualitzades fins l'últim dia disponible)
2017 -2,2 4,7 11,1 9,7 6,8 14,6 20,1 5,0 64,1 98,0 1.005,0 1.017,3 1.031,0   94,0 184,2  
Últimes dades anuals
2011 -3,9 11,1 21,0 16,2 5,8 21,4 33,8 21,5 53,2 94,0 92,0 608,7 54
2012 -3,2 10,5 15,5 16,1 20,1 21,8 35,2 38,8 58,6 72,6 1.015,8 1.018,2 1.020,7 106,0 372,0 39
2013 -1,7 10,3 14,2 15,7 19,6 21,2 32,4 49,9 62,4 70,3 1.007,7 1.017,5 1.024,7 105,0 503,0 50
2015 -1,5 11,0 17,4 16,5 19,7 21,9 38,0 45,5 63,6 76,4 1.011,8 1.018,2 1.029,5 98,0 529,2 68